createdAt,value
2022-12-31T00:04:17.708Z,53.00
2022-12-31T00:09:39.540Z,44.75
2022-12-31T00:15:01.414Z,51.75
2022-12-31T00:20:23.327Z,54.03
2022-12-31T00:25:45.156Z,46.88
2022-12-31T00:31:10.088Z,45.20
2022-12-31T00:36:37.596Z,54.53
2022-12-31T00:41:59.603Z,49.67
2022-12-31T00:47:21.427Z,43.20
2022-12-31T00:52:43.303Z,45.60
2022-12-31T00:58:05.250Z,50.35
2022-12-31T01:03:27.105Z,43.15
2022-12-31T01:08:51.181Z,45.17
2022-12-31T01:14:16.801Z,43.65
2022-12-31T01:19:38.647Z,42.23
2022-12-31T01:25:00.568Z,43.53
2022-12-31T01:30:22.405Z,44.05
2022-12-31T01:35:44.277Z,42.72
2022-12-31T01:41:06.799Z,43.10
2022-12-31T01:46:49.958Z,39.13
2022-12-31T01:52:32.605Z,42.45
2022-12-31T01:57:59.132Z,39.47
2022-12-31T02:03:23.466Z,39.85
2022-12-31T02:08:45.916Z,39.45
2022-12-31T02:14:18.729Z,38.17
2022-12-31T02:19:43.631Z,38.72
2022-12-31T02:25:50.626Z,35.15
2022-12-31T02:31:18.321Z,34.20
2022-12-31T02:36:44.454Z,34.00
2022-12-31T02:42:06.770Z,37.03
2022-12-31T02:48:06.343Z,34.60
2022-12-31T02:53:46.870Z,34.20
2022-12-31T02:59:13.803Z,35.90
2022-12-31T03:04:35.721Z,30.50
2022-12-31T03:09:58.050Z,37.22
2022-12-31T03:15:29.148Z,29.13
2022-12-31T03:20:51.452Z,30.13
2022-12-31T03:26:13.421Z,28.75
2022-12-31T03:31:35.314Z,27.17
2022-12-31T03:36:57.248Z,24.08
2022-12-31T03:42:19.096Z,23.52
2022-12-31T03:47:40.963Z,22.48
2022-12-31T03:53:03.185Z,19.83
2022-12-31T03:58:25.014Z,20.13
2022-12-31T04:03:46.803Z,20.55
2022-12-31T04:09:08.822Z,19.85
2022-12-31T04:14:30.684Z,19.75
2022-12-31T04:19:52.567Z,18.42
2022-12-31T04:25:14.399Z,18.30
2022-12-31T04:30:36.269Z,16.95
2022-12-31T04:36:02.019Z,16.60
2022-12-31T04:41:23.881Z,18.93
2022-12-31T04:46:45.794Z,19.27
2022-12-31T04:52:07.622Z,15.75
2022-12-31T04:57:29.477Z,18.67
2022-12-31T05:02:51.387Z,18.20
2022-12-31T05:08:14.016Z,16.75
2022-12-31T05:13:35.980Z,17.77
2022-12-31T05:18:57.808Z,20.52
2022-12-31T05:24:19.626Z,18.42
2022-12-31T05:29:41.450Z,18.67
2022-12-31T05:35:03.864Z,17.92
2022-12-31T05:40:25.735Z,20.15
2022-12-31T05:45:47.561Z,18.23
2022-12-31T05:51:09.447Z,19.38
2022-12-31T05:56:31.542Z,19.77
2022-12-31T06:01:53.405Z,20.10
2022-12-31T06:07:15.363Z,18.55
2022-12-31T06:12:37.137Z,19.00
2022-12-31T06:17:59.019Z,19.60
2022-12-31T06:23:20.833Z,20.90
2022-12-31T06:28:42.773Z,19.67
2022-12-31T06:34:04.665Z,20.08
2022-12-31T06:39:26.753Z,20.00
2022-12-31T06:44:48.578Z,20.02
2022-12-31T06:50:10.526Z,19.52
2022-12-31T06:55:32.837Z,18.45
2022-12-31T07:01:07.225Z,19.42
2022-12-31T07:06:53.994Z,24.27
2022-12-31T07:12:21.444Z,28.70
2022-12-31T07:18:01.534Z,30.08
2022-12-31T07:23:23.632Z,25.58
2022-12-31T07:29:00.827Z,20.70
2022-12-31T07:34:47.283Z,16.88
2022-12-31T07:45:52.226Z,14.57
2022-12-31T07:51:14.411Z,15.40
2022-12-31T07:56:36.417Z,17.88
2022-12-31T08:02:17.805Z,15.48
2022-12-31T08:08:41.217Z,15.32
2022-12-31T08:14:03.238Z,14.85
2022-12-31T08:19:30.674Z,17.23
2022-12-31T08:25:04.661Z,16.23
2022-12-31T08:30:49.861Z,15.15
2022-12-31T08:36:20.516Z,14.43
2022-12-31T08:41:48.174Z,14.05
2022-12-31T08:47:38.478Z,14.88
2022-12-31T08:53:00.972Z,11.65
2022-12-31T08:58:34.150Z,10.65
2022-12-31T09:03:59.052Z,13.18
2022-12-31T09:09:49.167Z,10.90
2022-12-31T09:15:25.180Z,10.38
2022-12-31T09:20:47.450Z,15.50
2022-12-31T09:26:37.045Z,11.48
2022-12-31T09:32:22.942Z,10.73
2022-12-31T09:37:54.711Z,10.85
2022-12-31T09:43:37.861Z,11.43
2022-12-31T09:49:11.587Z,10.05
2022-12-31T09:54:53.643Z,9.40
2022-12-31T10:00:39.085Z,13.23
2022-12-31T10:06:26.057Z,10.02
2022-12-31T10:12:17.016Z,8.85
2022-12-31T10:17:56.241Z,8.77
2022-12-31T10:23:36.214Z,8.38
2022-12-31T10:29:49.584Z,8.45
2022-12-31T10:35:43.584Z,9.30
2022-12-31T10:41:42.519Z,8.90
2022-12-31T10:47:23.151Z,9.30
2022-12-31T10:53:06.527Z,9.10
2022-12-31T10:59:09.633Z,9.50
2022-12-31T11:04:52.413Z,8.15
2022-12-31T11:10:51.450Z,10.20
2022-12-31T11:16:25.537Z,8.25
2022-12-31T11:22:05.802Z,8.27
2022-12-31T11:27:49.405Z,8.55
2022-12-31T11:33:17.478Z,8.80
2022-12-31T11:38:57.844Z,6.97
2022-12-31T11:44:41.215Z,9.10
2022-12-31T11:50:15.299Z,7.13
2022-12-31T11:55:41.478Z,6.65
2022-12-31T12:01:03.279Z,8.35
2022-12-31T12:06:29.964Z,8.10
2022-12-31T12:17:27.776Z,10.43
2022-12-31T12:22:55.266Z,7.55
2022-12-31T12:28:26.326Z,6.15
2022-12-31T12:33:50.448Z,6.40
2022-12-31T12:39:20.986Z,7.43
2022-12-31T12:44:43.101Z,7.80
2022-12-31T12:50:13.773Z,7.38
2022-12-31T12:55:53.623Z,6.90
2022-12-31T13:01:54.018Z,7.85
2022-12-31T13:07:31.398Z,7.82
2022-12-31T13:13:24.698Z,5.97
2022-12-31T13:19:08.679Z,7.82
2022-12-31T13:24:39.595Z,8.73
2022-12-31T13:30:03.770Z,7.32
2022-12-31T13:35:34.200Z,6.65
2022-12-31T13:41:17.652Z,7.90
2022-12-31T13:46:53.111Z,6.20
2022-12-31T13:52:44.291Z,8.57
2022-12-31T13:58:34.007Z,5.85
2022-12-31T14:04:03.407Z,8.25
2022-12-31T14:09:28.074Z,5.95
2022-12-31T14:15:20.859Z,7.53
2022-12-31T14:21:15.785Z,8.05
2022-12-31T14:26:44.047Z,7.90
2022-12-31T14:32:37.495Z,7.82
2022-12-31T14:38:05.792Z,7.40
2022-12-31T14:43:36.664Z,9.38
2022-12-31T14:49:21.109Z,7.03
2022-12-31T14:54:42.955Z,6.60
2022-12-31T15:00:36.976Z,6.30
2022-12-31T15:06:15.061Z,5.65
2022-12-31T15:11:46.825Z,6.32
2022-12-31T15:17:14.601Z,7.80
2022-12-31T15:22:48.215Z,6.13
2022-12-31T15:28:39.105Z,7.35
2022-12-31T15:34:06.714Z,11.85
2022-12-31T15:39:31.600Z,5.93
2022-12-31T15:45:04.029Z,7.07
2022-12-31T15:50:26.162Z,8.00
2022-12-31T15:55:53.066Z,6.07
2022-12-31T16:01:20.222Z,6.95
2022-12-31T16:06:46.074Z,5.05
2022-12-31T16:12:23.676Z,7.97
2022-12-31T16:18:09.879Z,8.18
2022-12-31T16:23:31.769Z,5.63
2022-12-31T16:28:56.821Z,6.40
2022-12-31T16:34:21.572Z,7.72
2022-12-31T16:39:58.431Z,5.40
2022-12-31T16:45:37.108Z,8.18
2022-12-31T16:50:59.124Z,6.45
2022-12-31T16:56:31.454Z,6.78
2022-12-31T17:01:54.847Z,7.22
2022-12-31T17:07:31.829Z,6.15
2022-12-31T17:18:38.815Z,5.35
2022-12-31T17:24:04.355Z,6.78
2022-12-31T17:29:26.716Z,9.00
2022-12-31T17:34:50.389Z,6.32
2022-12-31T17:40:52.428Z,8.80
2022-12-31T17:46:16.645Z,6.28
2022-12-31T17:51:41.276Z,7.00
2022-12-31T17:57:11.774Z,7.25
2022-12-31T18:02:33.980Z,7.70
2022-12-31T18:07:55.942Z,6.13
2022-12-31T18:13:24.152Z,6.55
2022-12-31T18:18:45.997Z,6.00
2022-12-31T18:24:14.361Z,6.53
2022-12-31T18:29:36.268Z,5.82
2022-12-31T18:34:58.318Z,7.95
2022-12-31T18:40:20.191Z,8.23
2022-12-31T18:45:42.196Z,8.30
2022-12-31T18:51:04.135Z,7.28
2022-12-31T18:56:26.113Z,6.95
2022-12-31T19:01:48.116Z,7.40
2022-12-31T19:07:10.052Z,7.82
2022-12-31T19:12:31.916Z,8.07
2022-12-31T19:17:54.060Z,6.90
2022-12-31T19:23:19.409Z,11.73
2022-12-31T19:28:41.341Z,9.02
2022-12-31T19:34:03.222Z,6.72
2022-12-31T19:39:25.108Z,7.95
2022-12-31T19:44:47.024Z,7.78
2022-12-31T19:50:15.695Z,9.15
2022-12-31T19:55:37.742Z,7.97
2022-12-31T20:01:02.850Z,8.20
2022-12-31T20:06:25.540Z,6.93
2022-12-31T20:11:47.462Z,8.20
2022-12-31T20:17:09.545Z,7.47
2022-12-31T20:22:31.481Z,6.03
2022-12-31T20:27:54.360Z,8.45
2022-12-31T20:33:19.152Z,7.90
2022-12-31T20:38:41.864Z,7.50
2022-12-31T20:44:04.056Z,6.05
2022-12-31T20:49:52.048Z,8.05
2022-12-31T20:55:08.384Z,8.45
2022-12-31T21:00:30.391Z,7.55
2022-12-31T21:05:54.650Z,11.15
2022-12-31T21:11:17.016Z,9.85
2022-12-31T21:16:38.935Z,8.40
2022-12-31T21:22:00.928Z,8.38
2022-12-31T21:27:22.873Z,10.70
2022-12-31T21:32:44.710Z,9.52
2022-12-31T21:38:07.521Z,6.80
2022-12-31T21:43:30.057Z,8.75
2022-12-31T21:48:56.825Z,6.75
2022-12-31T21:54:18.720Z,6.88
2022-12-31T21:59:46.375Z,6.75
2022-12-31T22:05:18.478Z,6.00
2022-12-31T22:10:51.979Z,7.07
2022-12-31T22:16:14.999Z,10.43
2022-12-31T22:21:37.031Z,6.72
2022-12-31T22:26:58.888Z,8.45
2022-12-31T22:32:40.943Z,7.78
2022-12-31T22:38:09.855Z,7.50
2022-12-31T22:43:35.743Z,8.77
2022-12-31T22:48:59.943Z,7.53
2022-12-31T22:54:21.906Z,10.20
2022-12-31T22:59:43.876Z,25.60
2022-12-31T23:05:14.957Z,56.78
2022-12-31T23:10:38.382Z,56.22
2022-12-31T23:16:00.372Z,30.27
2022-12-31T23:21:22.326Z,21.50
2022-12-31T23:26:44.316Z,21.80
2022-12-31T23:32:07.505Z,22.30
2022-12-31T23:37:29.475Z,20.00
2022-12-31T23:42:51.330Z,17.02
2022-12-31T23:48:13.183Z,22.05
2022-12-31T23:53:37.549Z,13.65
2022-12-31T23:59:00.115Z,13.13
